sensor_id;sensor_type;location;lat;lon;timestamp;temperature;humidity
61392;DHT22;47261;52.892;5.738;2023-07-31T00:00:47;17.50;99.90
61392;DHT22;47261;52.892;5.738;2023-07-31T00:03:12;17.50;99.90
61392;DHT22;47261;52.892;5.738;2023-07-31T00:05:38;17.50;99.90
61392;DHT22;47261;52.892;5.738;2023-07-31T00:08:04;17.50;99.90
61392;DHT22;47261;52.892;5.738;2023-07-31T00:10:29;17.50;99.90
61392;DHT22;47261;52.892;5.738;2023-07-31T00:12:55;17.50;99.90
61392;DHT22;47261;52.892;5.738;2023-07-31T00:15:20;17.40;99.90
61392;DHT22;47261;52.892;5.738;2023-07-31T00:17:46;17.40;99.90
61392;DHT22;47261;52.892;5.738;2023-07-31T00:20:13;17.40;99.90
61392;DHT22;47261;52.892;5.738;2023-07-31T00:22:38;17.40;99.90
61392;DHT22;47261;52.892;5.738;2023-07-31T00:25:04;17.40;99.90
61392;DHT22;47261;52.892;5.738;2023-07-31T00:27:32;17.40;99.90
61392;DHT22;47261;52.892;5.738;2023-07-31T00:29:57;17.50;99.90
61392;DHT22;47261;52.892;5.738;2023-07-31T00:32:23;17.50;99.90
61392;DHT22;47261;52.892;5.738;2023-07-31T00:34:49;17.50;99.90
61392;DHT22;47261;52.892;5.738;2023-07-31T00:37:14;17.50;99.90
61392;DHT22;47261;52.892;5.738;2023-07-31T00:39:41;17.50;99.90
61392;DHT22;47261;52.892;5.738;2023-07-31T00:42:06;17.50;99.90
61392;DHT22;47261;52.892;5.738;2023-07-31T00:44:32;17.50;99.90
61392;DHT22;47261;52.892;5.738;2023-07-31T00:46:58;17.50;99.90
61392;DHT22;47261;52.892;5.738;2023-07-31T00:49:25;17.50;99.90
61392;DHT22;47261;52.892;5.738;2023-07-31T00:51:51;17.60;99.90
61392;DHT22;47261;52.892;5.738;2023-07-31T00:54:17;17.60;99.90
61392;DHT22;47261;52.892;5.738;2023-07-31T00:56:44;17.60;99.90
61392;DHT22;47261;52.892;5.738;2023-07-31T00:59:10;17.60;99.90
61392;DHT22;47261;52.892;5.738;2023-07-31T01:01:36;17.60;99.90
61392;DHT22;47261;52.892;5.738;2023-07-31T01:04:02;17.60;99.90
61392;DHT22;47261;52.892;5.738;2023-07-31T01:06:39;17.60;99.90
61392;DHT22;47261;52.892;5.738;2023-07-31T01:09:11;17.60;99.90
61392;DHT22;47261;52.892;5.738;2023-07-31T01:11:52;17.60;99.90
61392;DHT22;47261;52.892;5.738;2023-07-31T01:14:18;17.60;99.90
61392;DHT22;47261;52.892;5.738;2023-07-31T01:16:43;17.60;99.90
61392;DHT22;47261;52.892;5.738;2023-07-31T01:19:10;17.60;99.90
61392;DHT22;47261;52.892;5.738;2023-07-31T01:26:56;17.60;99.90
61392;DHT22;47261;52.892;5.738;2023-07-31T01:29:28;17.60;99.90
61392;DHT22;47261;52.892;5.738;2023-07-31T01:31:56;17.60;99.90
61392;DHT22;47261;52.892;5.738;2023-07-31T01:34:24;17.70;99.90
61392;DHT22;47261;52.892;5.738;2023-07-31T01:36:50;17.60;99.90
61392;DHT22;47261;52.892;5.738;2023-07-31T01:39:15;17.60;99.90
61392;DHT22;47261;52.892;5.738;2023-07-31T01:41:41;17.60;99.90
61392;DHT22;47261;52.892;5.738;2023-07-31T01:44:07;17.60;99.90
61392;DHT22;47261;52.892;5.738;2023-07-31T01:46:32;17.60;99.90
61392;DHT22;47261;52.892;5.738;2023-07-31T01:48:58;17.60;99.90
61392;DHT22;47261;52.892;5.738;2023-07-31T01:51:24;17.60;99.90
61392;DHT22;47261;52.892;5.738;2023-07-31T01:53:49;17.60;99.90
61392;DHT22;47261;52.892;5.738;2023-07-31T01:56:15;17.60;99.90
61392;DHT22;47261;52.892;5.738;2023-07-31T01:58:40;17.60;99.90
61392;DHT22;47261;52.892;5.738;2023-07-31T02:01:06;17.60;99.90
61392;DHT22;47261;52.892;5.738;2023-07-31T02:03:32;17.50;99.90
61392;DHT22;47261;52.892;5.738;2023-07-31T02:05:57;17.50;99.90
61392;DHT22;47261;52.892;5.738;2023-07-31T02:08:23;17.50;99.90
61392;DHT22;47261;52.892;5.738;2023-07-31T02:10:49;17.40;99.90
61392;DHT22;47261;52.892;5.738;2023-07-31T02:13:14;17.40;99.90
61392;DHT22;47261;52.892;5.738;2023-07-31T02:15:40;17.30;99.90
61392;DHT22;47261;52.892;5.738;2023-07-31T02:18:05;17.40;99.90
61392;DHT22;47261;52.892;5.738;2023-07-31T02:20:34;17.30;99.90
61392;DHT22;47261;52.892;5.738;2023-07-31T02:23:00;17.30;99.90
61392;DHT22;47261;52.892;5.738;2023-07-31T02:25:26;17.30;99.90
61392;DHT22;47261;52.892;5.738;2023-07-31T02:27:51;17.20;99.90
61392;DHT22;47261;52.892;5.738;2023-07-31T02:30:17;17.20;99.90
61392;DHT22;47261;52.892;5.738;2023-07-31T02:32:42;17.20;99.90
61392;DHT22;47261;52.892;5.738;2023-07-31T02:35:08;17.10;99.90
61392;DHT22;47261;52.892;5.738;2023-07-31T02:37:34;17.10;99.90
61392;DHT22;47261;52.892;5.738;2023-07-31T02:39:59;17.10;99.90
61392;DHT22;47261;52.892;5.738;2023-07-31T02:42:25;17.10;99.90
61392;DHT22;47261;52.892;5.738;2023-07-31T02:44:51;17.10;99.90
61392;DHT22;47261;52.892;5.738;2023-07-31T02:47:21;17.10;99.90
61392;DHT22;47261;52.892;5.738;2023-07-31T02:49:47;17.10;99.90
61392;DHT22;47261;52.892;5.738;2023-07-31T02:52:12;17.10;99.90
61392;DHT22;47261;52.892;5.738;2023-07-31T02:54:38;17.10;99.90
61392;DHT22;47261;52.892;5.738;2023-07-31T02:57:04;17.10;99.90
61392;DHT22;47261;52.892;5.738;2023-07-31T02:59:30;17.20;99.90
61392;DHT22;47261;52.892;5.738;2023-07-31T03:01:56;17.10;99.90
61392;DHT22;47261;52.892;5.738;2023-07-31T03:04:21;17.20;99.90
61392;DHT22;47261;52.892;5.738;2023-07-31T03:06:47;17.20;99.90
61392;DHT22;47261;52.892;5.738;2023-07-31T03:09:12;17.20;99.90
61392;DHT22;47261;52.892;5.738;2023-07-31T03:11:38;17.30;99.90
61392;DHT22;47261;52.892;5.738;2023-07-31T03:14:04;17.30;99.90
61392;DHT22;47261;52.892;5.738;2023-07-31T03:16:29;17.30;99.90
61392;DHT22;47261;52.892;5.738;2023-07-31T03:18:55;17.30;99.90
61392;DHT22;47261;52.892;5.738;2023-07-31T03:21:21;17.30;99.90
61392;DHT22;47261;52.892;5.738;2023-07-31T03:23:46;17.40;99.90
61392;DHT22;47261;52.892;5.738;2023-07-31T03:26:12;17.40;99.90
61392;DHT22;47261;52.892;5.738;2023-07-31T03:28:37;17.40;99.90
61392;DHT22;47261;52.892;5.738;2023-07-31T03:31:03;17.40;99.90
61392;DHT22;47261;52.892;5.738;2023-07-31T03:33:29;17.40;99.90
61392;DHT22;47261;52.892;5.738;2023-07-31T03:35:55;17.40;99.90
61392;DHT22;47261;52.892;5.738;2023-07-31T03:38:20;17.50;99.90
61392;DHT22;47261;52.892;5.738;2023-07-31T03:40:46;17.40;99.90
61392;DHT22;47261;52.892;5.738;2023-07-31T03:43:13;17.50;99.90
61392;DHT22;47261;52.892;5.738;2023-07-31T03:45:38;17.50;99.90
61392;DHT22;47261;52.892;5.738;2023-07-31T03:48:05;17.50;99.90
61392;DHT22;47261;52.892;5.738;2023-07-31T03:50:31;17.40;99.90
61392;DHT22;47261;52.892;5.738;2023-07-31T03:52:56;17.40;99.90
61392;DHT22;47261;52.892;5.738;2023-07-31T03:55:22;17.30;99.90
61392;DHT22;47261;52.892;5.738;2023-07-31T03:57:48;17.30;99.90
61392;DHT22;47261;52.892;5.738;2023-07-31T04:00:13;17.30;99.90
61392;DHT22;47261;52.892;5.738;2023-07-31T04:02:39;17.20;99.90
61392;DHT22;47261;52.892;5.738;2023-07-31T04:05:05;17.20;99.90
61392;DHT22;47261;52.892;5.738;2023-07-31T04:07:31;17.20;99.90
61392;DHT22;47261;52.892;5.738;2023-07-31T04:09:57;17.20;99.90
61392;DHT22;47261;52.892;5.738;2023-07-31T04:12:23;17.20;99.90
61392;DHT22;47261;52.892;5.738;2023-07-31T04:14:49;17.20;99.90
61392;DHT22;47261;52.892;5.738;2023-07-31T04:17:15;17.20;99.90
61392;DHT22;47261;52.892;5.738;2023-07-31T04:19:40;17.20;99.90
61392;DHT22;47261;52.892;5.738;2023-07-31T04:22:06;17.30;99.90
61392;DHT22;47261;52.892;5.738;2023-07-31T04:24:31;17.30;99.90
61392;DHT22;47261;52.892;5.738;2023-07-31T04:26:57;17.40;99.90
61392;DHT22;47261;52.892;5.738;2023-07-31T04:29:23;17.40;99.90
61392;DHT22;47261;52.892;5.738;2023-07-31T04:31:49;17.50;99.90
61392;DHT22;47261;52.892;5.738;2023-07-31T04:34:15;17.50;99.90
61392;DHT22;47261;52.892;5.738;2023-07-31T04:36:40;17.50;99.90
61392;DHT22;47261;52.892;5.738;2023-07-31T04:39:06;17.60;99.90
61392;DHT22;47261;52.892;5.738;2023-07-31T04:41:32;17.60;99.90
61392;DHT22;47261;52.892;5.738;2023-07-31T04:43:57;17.60;99.90
61392;DHT22;47261;52.892;5.738;2023-07-31T04:46:23;17.60;99.90
61392;DHT22;47261;52.892;5.738;2023-07-31T04:48:48;17.70;99.90
61392;DHT22;47261;52.892;5.738;2023-07-31T04:51:14;17.70;99.90
61392;DHT22;47261;52.892;5.738;2023-07-31T04:53:40;17.70;99.90
61392;DHT22;47261;52.892;5.738;2023-07-31T04:56:05;17.70;99.90
61392;DHT22;47261;52.892;5.738;2023-07-31T04:58:31;17.70;99.90
61392;DHT22;47261;52.892;5.738;2023-07-31T05:00:57;17.70;99.90
61392;DHT22;47261;52.892;5.738;2023-07-31T05:03:22;17.70;99.90
61392;DHT22;47261;52.892;5.738;2023-07-31T05:05:48;17.80;99.90
61392;DHT22;47261;52.892;5.738;2023-07-31T05:08:13;17.80;99.90
61392;DHT22;47261;52.892;5.738;2023-07-31T05:10:39;17.80;99.90
61392;DHT22;47261;52.892;5.738;2023-07-31T05:13:05;17.80;99.90
61392;DHT22;47261;52.892;5.738;2023-07-31T05:15:31;17.80;99.90
61392;DHT22;47261;52.892;5.738;2023-07-31T05:17:56;17.80;99.90
61392;DHT22;47261;52.892;5.738;2023-07-31T05:20:22;17.90;99.90
61392;DHT22;47261;52.892;5.738;2023-07-31T05:22:48;17.90;99.90
61392;DHT22;47261;52.892;5.738;2023-07-31T05:25:13;17.90;99.90
61392;DHT22;47261;52.892;5.738;2023-07-31T05:27:39;17.90;99.90
61392;DHT22;47261;52.892;5.738;2023-07-31T05:30:06;17.90;99.90
61392;DHT22;47261;52.892;5.738;2023-07-31T05:32:32;18.00;99.90
61392;DHT22;47261;52.892;5.738;2023-07-31T05:34:57;18.00;99.90
61392;DHT22;47261;52.892;5.738;2023-07-31T05:37:23;18.00;99.90
61392;DHT22;47261;52.892;5.738;2023-07-31T05:39:49;18.10;99.90
61392;DHT22;47261;52.892;5.738;2023-07-31T05:42:15;18.10;99.90
61392;DHT22;47261;52.892;5.738;2023-07-31T05:44:40;18.10;99.90
61392;DHT22;47261;52.892;5.738;2023-07-31T05:47:06;18.20;99.90
61392;DHT22;47261;52.892;5.738;2023-07-31T05:49:32;18.20;99.90
61392;DHT22;47261;52.892;5.738;2023-07-31T05:51:57;18.30;99.90
61392;DHT22;47261;52.892;5.738;2023-07-31T05:54:23;18.20;99.90
61392;DHT22;47261;52.892;5.738;2023-07-31T05:56:49;18.20;99.90
61392;DHT22;47261;52.892;5.738;2023-07-31T05:59:16;18.20;99.90
61392;DHT22;47261;52.892;5.738;2023-07-31T06:01:42;18.20;99.90
61392;DHT22;47261;52.892;5.738;2023-07-31T06:04:08;18.20;99.90
61392;DHT22;47261;52.892;5.738;2023-07-31T06:06:34;18.20;99.90
61392;DHT22;47261;52.892;5.738;2023-07-31T06:08:59;18.20;99.90
61392;DHT22;47261;52.892;5.738;2023-07-31T06:11:25;18.20;99.90
61392;DHT22;47261;52.892;5.738;2023-07-31T06:13:51;18.20;99.90
61392;DHT22;47261;52.892;5.738;2023-07-31T06:16:17;18.20;99.90
61392;DHT22;47261;52.892;5.738;2023-07-31T06:18:42;18.20;99.90
61392;DHT22;47261;52.892;5.738;2023-07-31T06:21:09;18.10;99.90
61392;DHT22;47261;52.892;5.738;2023-07-31T06:23:35;18.10;99.90
61392;DHT22;47261;52.892;5.738;2023-07-31T06:26:01;18.10;99.90
61392;DHT22;47261;52.892;5.738;2023-07-31T06:28:31;18.10;99.90
61392;DHT22;47261;52.892;5.738;2023-07-31T06:30:57;18.10;99.90
61392;DHT22;47261;52.892;5.738;2023-07-31T06:33:23;18.10;99.90
61392;DHT22;47261;52.892;5.738;2023-07-31T06:35:49;18.10;99.90
61392;DHT22;47261;52.892;5.738;2023-07-31T06:38:14;18.10;99.90
61392;DHT22;47261;52.892;5.738;2023-07-31T06:40:40;18.10;99.90
61392;DHT22;47261;52.892;5.738;2023-07-31T06:43:06;18.10;99.90
61392;DHT22;47261;52.892;5.738;2023-07-31T06:45:36;18.10;99.90
61392;DHT22;47261;52.892;5.738;2023-07-31T06:48:03;18.20;99.90
61392;DHT22;47261;52.892;5.738;2023-07-31T06:50:32;18.20;99.90
61392;DHT22;47261;52.892;5.738;2023-07-31T06:52:58;18.20;99.90
61392;DHT22;47261;52.892;5.738;2023-07-31T06:55:25;18.30;99.90
61392;DHT22;47261;52.892;5.738;2023-07-31T06:57:52;18.30;99.90
61392;DHT22;47261;52.892;5.738;2023-07-31T07:00:19;18.30;99.90
61392;DHT22;47261;52.892;5.738;2023-07-31T07:02:45;18.30;99.90
61392;DHT22;47261;52.892;5.738;2023-07-31T07:05:13;18.30;99.90
61392;DHT22;47261;52.892;5.738;2023-07-31T07:07:39;18.30;99.90
61392;DHT22;47261;52.892;5.738;2023-07-31T07:10:06;18.20;99.90
61392;DHT22;47261;52.892;5.738;2023-07-31T07:12:32;18.20;99.90
61392;DHT22;47261;52.892;5.738;2023-07-31T07:14:59;18.20;99.90
61392;DHT22;47261;52.892;5.738;2023-07-31T07:17:26;18.10;99.90
61392;DHT22;47261;52.892;5.738;2023-07-31T07:19:51;18.10;99.90
61392;DHT22;47261;52.892;5.738;2023-07-31T07:22:18;18.10;99.90
61392;DHT22;47261;52.892;5.738;2023-07-31T07:24:43;18.10;99.90
61392;DHT22;47261;52.892;5.738;2023-07-31T07:27:09;18.10;99.90
61392;DHT22;47261;52.892;5.738;2023-07-31T07:29:35;18.10;99.90
61392;DHT22;47261;52.892;5.738;2023-07-31T07:32:01;18.10;99.90
61392;DHT22;47261;52.892;5.738;2023-07-31T07:34:27;18.10;99.90
61392;DHT22;47261;52.892;5.738;2023-07-31T07:36:53;18.00;99.90
61392;DHT22;47261;52.892;5.738;2023-07-31T07:39:19;18.00;99.90
61392;DHT22;47261;52.892;5.738;2023-07-31T07:41:46;18.10;99.90
61392;DHT22;47261;52.892;5.738;2023-07-31T07:44:12;18.00;99.90
61392;DHT22;47261;52.892;5.738;2023-07-31T07:46:38;18.10;99.90
61392;DHT22;47261;52.892;5.738;2023-07-31T07:49:03;18.10;99.90
61392;DHT22;47261;52.892;5.738;2023-07-31T07:51:29;18.10;99.90
61392;DHT22;47261;52.892;5.738;2023-07-31T07:53:57;18.10;99.90
61392;DHT22;47261;52.892;5.738;2023-07-31T07:56:24;18.20;99.90
61392;DHT22;47261;52.892;5.738;2023-07-31T07:58:50;18.20;99.90
61392;DHT22;47261;52.892;5.738;2023-07-31T08:01:16;18.20;99.90
61392;DHT22;47261;52.892;5.738;2023-07-31T08:03:42;18.30;99.90
61392;DHT22;47261;52.892;5.738;2023-07-31T08:06:08;18.30;99.90
61392;DHT22;47261;52.892;5.738;2023-07-31T08:08:37;18.30;99.90
61392;DHT22;47261;52.892;5.738;2023-07-31T08:11:03;18.30;99.90
61392;DHT22;47261;52.892;5.738;2023-07-31T08:13:29;18.40;99.90
61392;DHT22;47261;52.892;5.738;2023-07-31T08:15:55;18.40;99.90
61392;DHT22;47261;52.892;5.738;2023-07-31T08:18:21;18.40;99.90
61392;DHT22;47261;52.892;5.738;2023-07-31T08:20:46;18.40;99.90
61392;DHT22;47261;52.892;5.738;2023-07-31T08:23:12;18.40;99.90
61392;DHT22;47261;52.892;5.738;2023-07-31T08:25:38;18.40;99.90
61392;DHT22;47261;52.892;5.738;2023-07-31T08:28:05;18.50;99.90
61392;DHT22;47261;52.892;5.738;2023-07-31T08:30:31;18.50;99.90
61392;DHT22;47261;52.892;5.738;2023-07-31T08:32:58;18.60;99.90
61392;DHT22;47261;52.892;5.738;2023-07-31T08:35:25;18.70;99.90
61392;DHT22;47261;52.892;5.738;2023-07-31T08:37:51;18.70;99.90
61392;DHT22;47261;52.892;5.738;2023-07-31T08:40:17;18.70;99.90
61392;DHT22;47261;52.892;5.738;2023-07-31T08:42:46;18.80;99.90
61392;DHT22;47261;52.892;5.738;2023-07-31T08:45:16;18.90;99.90
61392;DHT22;47261;52.892;5.738;2023-07-31T08:47:45;18.90;99.90
61392;DHT22;47261;52.892;5.738;2023-07-31T08:50:15;18.90;99.90
61392;DHT22;47261;52.892;5.738;2023-07-31T08:52:41;19.00;99.90
61392;DHT22;47261;52.892;5.738;2023-07-31T08:55:08;19.00;99.90
61392;DHT22;47261;52.892;5.738;2023-07-31T08:57:36;19.00;99.90
61392;DHT22;47261;52.892;5.738;2023-07-31T09:00:06;19.00;99.90
61392;DHT22;47261;52.892;5.738;2023-07-31T09:03:02;19.00;99.90
61392;DHT22;47261;52.892;5.738;2023-07-31T09:05:30;19.20;99.90
61392;DHT22;47261;52.892;5.738;2023-07-31T09:07:57;19.30;99.90
61392;DHT22;47261;52.892;5.738;2023-07-31T09:10:23;19.40;99.90
61392;DHT22;47261;52.892;5.738;2023-07-31T09:12:51;19.50;99.90
61392;DHT22;47261;52.892;5.738;2023-07-31T09:15:17;19.50;99.90
61392;DHT22;47261;52.892;5.738;2023-07-31T09:17:43;19.50;99.90
61392;DHT22;47261;52.892;5.738;2023-07-31T09:20:20;19.50;99.90
61392;DHT22;47261;52.892;5.738;2023-07-31T09:22:47;19.60;99.90
61392;DHT22;47261;52.892;5.738;2023-07-31T09:25:24;19.70;99.90
61392;DHT22;47261;52.892;5.738;2023-07-31T09:30:20;19.80;99.90
61392;DHT22;47261;52.892;5.738;2023-07-31T09:32:47;19.90;99.90
61392;DHT22;47261;52.892;5.738;2023-07-31T09:37:51;20.10;99.90
61392;DHT22;47261;52.892;5.738;2023-07-31T09:40:33;20.20;99.90
61392;DHT22;47261;52.892;5.738;2023-07-31T09:45:26;20.40;99.90
61392;DHT22;47261;52.892;5.738;2023-07-31T09:47:52;20.40;99.90
61392;DHT22;47261;52.892;5.738;2023-07-31T09:50:19;20.50;99.90
61392;DHT22;47261;52.892;5.738;2023-07-31T09:52:45;20.50;99.90
61392;DHT22;47261;52.892;5.738;2023-07-31T09:55:11;20.40;99.90
61392;DHT22;47261;52.892;5.738;2023-07-31T09:57:40;20.30;99.90
61392;DHT22;47261;52.892;5.738;2023-07-31T10:00:07;20.20;99.90
61392;DHT22;47261;52.892;5.738;2023-07-31T10:02:35;20.20;99.90
61392;DHT22;47261;52.892;5.738;2023-07-31T10:05:03;20.20;99.90
61392;DHT22;47261;52.892;5.738;2023-07-31T10:07:30;20.20;99.90
61392;DHT22;47261;52.892;5.738;2023-07-31T10:10:00;20.20;99.90
61392;DHT22;47261;52.892;5.738;2023-07-31T10:12:27;20.30;99.90
61392;DHT22;47261;52.892;5.738;2023-07-31T10:14:56;20.40;99.90
61392;DHT22;47261;52.892;5.738;2023-07-31T10:17:23;20.50;99.90
61392;DHT22;47261;52.892;5.738;2023-07-31T10:19:49;20.60;99.90
61392;DHT22;47261;52.892;5.738;2023-07-31T10:22:16;20.80;99.90
61392;DHT22;47261;52.892;5.738;2023-07-31T10:24:43;20.90;99.90
61392;DHT22;47261;52.892;5.738;2023-07-31T10:27:09;20.90;99.90
61392;DHT22;47261;52.892;5.738;2023-07-31T10:29:39;20.80;99.90
61392;DHT22;47261;52.892;5.738;2023-07-31T10:32:09;20.70;99.90
61392;DHT22;47261;52.892;5.738;2023-07-31T10:34:39;20.60;99.90
61392;DHT22;47261;52.892;5.738;2023-07-31T10:42:36;20.20;99.90
61392;DHT22;47261;52.892;5.738;2023-07-31T10:45:08;20.10;99.90
61392;DHT22;47261;52.892;5.738;2023-07-31T10:47:39;20.20;99.90
61392;DHT22;47261;52.892;5.738;2023-07-31T10:50:17;20.10;99.90
61392;DHT22;47261;52.892;5.738;2023-07-31T10:52:52;20.20;99.90
61392;DHT22;47261;52.892;5.738;2023-07-31T10:55:26;20.30;99.90
61392;DHT22;47261;52.892;5.738;2023-07-31T10:57:53;20.40;99.90
61392;DHT22;47261;52.892;5.738;2023-07-31T11:00:28;20.50;99.90
61392;DHT22;47261;52.892;5.738;2023-07-31T11:10:49;20.90;99.90
61392;DHT22;47261;52.892;5.738;2023-07-31T11:13:15;20.90;99.90
61392;DHT22;47261;52.892;5.738;2023-07-31T11:15:41;20.80;99.90
61392;DHT22;47261;52.892;5.738;2023-07-31T11:18:06;20.80;99.90
61392;DHT22;47261;52.892;5.738;2023-07-31T11:20:35;20.70;99.90
61392;DHT22;47261;52.892;5.738;2023-07-31T11:23:07;20.70;99.90
61392;DHT22;47261;52.892;5.738;2023-07-31T11:25:33;20.60;99.90
61392;DHT22;47261;52.892;5.738;2023-07-31T11:28:07;20.60;99.90
61392;DHT22;47261;52.892;5.738;2023-07-31T11:30:33;20.50;99.90
61392;DHT22;47261;52.892;5.738;2023-07-31T11:33:01;20.50;99.90
61392;DHT22;47261;52.892;5.738;2023-07-31T11:35:32;20.50;99.90
61392;DHT22;47261;52.892;5.738;2023-07-31T11:37:57;20.50;99.90
61392;DHT22;47261;52.892;5.738;2023-07-31T11:40:23;20.40;99.90
61392;DHT22;47261;52.892;5.738;2023-07-31T11:43:04;20.30;99.90
61392;DHT22;47261;52.892;5.738;2023-07-31T11:45:30;20.20;99.90
61392;DHT22;47261;52.892;5.738;2023-07-31T11:47:56;20.20;99.90
61392;DHT22;47261;52.892;5.738;2023-07-31T11:50:23;20.20;99.90
61392;DHT22;47261;52.892;5.738;2023-07-31T11:52:54;20.10;99.90
61392;DHT22;47261;52.892;5.738;2023-07-31T11:55:21;20.10;99.90
61392;DHT22;47261;52.892;5.738;2023-07-31T11:57:47;20.00;99.90
61392;DHT22;47261;52.892;5.738;2023-07-31T12:00:14;20.00;99.90
61392;DHT22;47261;52.892;5.738;2023-07-31T12:02:40;20.00;99.90
61392;DHT22;47261;52.892;5.738;2023-07-31T12:05:13;20.10;99.90
61392;DHT22;47261;52.892;5.738;2023-07-31T12:07:49;20.30;99.90
61392;DHT22;47261;52.892;5.738;2023-07-31T12:13:07;20.70;99.90
61392;DHT22;47261;52.892;5.738;2023-07-31T12:15:41;20.90;99.90
61392;DHT22;47261;52.892;5.738;2023-07-31T12:18:09;21.10;99.90
61392;DHT22;47261;52.892;5.738;2023-07-31T12:20:44;21.20;99.90
61392;DHT22;47261;52.892;5.738;2023-07-31T12:28:30;21.70;99.90
61392;DHT22;47261;52.892;5.738;2023-07-31T12:30:58;21.80;99.90
61392;DHT22;47261;52.892;5.738;2023-07-31T12:33:31;22.00;99.90
61392;DHT22;47261;52.892;5.738;2023-07-31T12:35:57;22.10;99.90
61392;DHT22;47261;52.892;5.738;2023-07-31T12:38:23;22.20;99.90
61392;DHT22;47261;52.892;5.738;2023-07-31T12:40:49;22.20;99.90
61392;DHT22;47261;52.892;5.738;2023-07-31T12:43:15;22.20;99.90
61392;DHT22;47261;52.892;5.738;2023-07-31T12:45:41;22.20;99.90
61392;DHT22;47261;52.892;5.738;2023-07-31T12:48:06;22.10;99.90
61392;DHT22;47261;52.892;5.738;2023-07-31T12:50:32;22.10;99.90
61392;DHT22;47261;52.892;5.738;2023-07-31T12:52:58;22.10;99.90
61392;DHT22;47261;52.892;5.738;2023-07-31T12:55:23;21.90;99.90
61392;DHT22;47261;52.892;5.738;2023-07-31T12:57:50;21.80;99.90
61392;DHT22;47261;52.892;5.738;2023-07-31T13:00:15;21.60;99.90
61392;DHT22;47261;52.892;5.738;2023-07-31T13:02:41;21.50;99.90
61392;DHT22;47261;52.892;5.738;2023-07-31T13:05:07;21.40;99.90
61392;DHT22;47261;52.892;5.738;2023-07-31T13:07:33;21.20;99.90
61392;DHT22;47261;52.892;5.738;2023-07-31T13:09:58;21.20;99.90
61392;DHT22;47261;52.892;5.738;2023-07-31T13:12:24;21.10;99.90
61392;DHT22;47261;52.892;5.738;2023-07-31T13:14:50;21.10;99.90
61392;DHT22;47261;52.892;5.738;2023-07-31T13:17:16;21.10;99.90
61392;DHT22;47261;52.892;5.738;2023-07-31T13:19:42;21.10;99.90
61392;DHT22;47261;52.892;5.738;2023-07-31T13:22:08;21.10;99.90
61392;DHT22;47261;52.892;5.738;2023-07-31T13:24:33;21.10;99.90
61392;DHT22;47261;52.892;5.738;2023-07-31T13:26:59;21.10;99.90
61392;DHT22;47261;52.892;5.738;2023-07-31T13:29:25;21.10;99.90
61392;DHT22;47261;52.892;5.738;2023-07-31T13:31:52;21.00;99.90
61392;DHT22;47261;52.892;5.738;2023-07-31T13:34:18;21.00;99.90
61392;DHT22;47261;52.892;5.738;2023-07-31T13:36:43;20.90;99.90
61392;DHT22;47261;52.892;5.738;2023-07-31T13:39:09;20.90;99.90
61392;DHT22;47261;52.892;5.738;2023-07-31T13:41:35;20.90;99.90
61392;DHT22;47261;52.892;5.738;2023-07-31T13:44:00;20.90;99.90
61392;DHT22;47261;52.892;5.738;2023-07-31T13:46:26;20.90;99.90
61392;DHT22;47261;52.892;5.738;2023-07-31T13:48:52;20.90;99.90
61392;DHT22;47261;52.892;5.738;2023-07-31T13:51:21;20.90;99.90
61392;DHT22;47261;52.892;5.738;2023-07-31T13:53:47;21.00;99.90
61392;DHT22;47261;52.892;5.738;2023-07-31T13:56:13;21.00;99.90
61392;DHT22;47261;52.892;5.738;2023-07-31T13:58:39;21.00;99.90
61392;DHT22;47261;52.892;5.738;2023-07-31T14:01:04;21.00;99.90
61392;DHT22;47261;52.892;5.738;2023-07-31T14:03:31;21.10;99.90
61392;DHT22;47261;52.892;5.738;2023-07-31T14:05:56;21.20;99.90
61392;DHT22;47261;52.892;5.738;2023-07-31T14:08:22;21.20;99.90
61392;DHT22;47261;52.892;5.738;2023-07-31T14:10:48;21.30;99.90
61392;DHT22;47261;52.892;5.738;2023-07-31T14:13:13;21.30;99.90
61392;DHT22;47261;52.892;5.738;2023-07-31T14:15:41;21.30;99.90
61392;DHT22;47261;52.892;5.738;2023-07-31T14:18:07;21.30;99.90
61392;DHT22;47261;52.892;5.738;2023-07-31T14:20:33;21.20;99.90
61392;DHT22;47261;52.892;5.738;2023-07-31T14:22:59;21.10;99.90
61392;DHT22;47261;52.892;5.738;2023-07-31T14:25:24;21.10;99.90
61392;DHT22;47261;52.892;5.738;2023-07-31T14:27:50;21.00;99.90
61392;DHT22;47261;52.892;5.738;2023-07-31T14:30:16;21.00;99.90
61392;DHT22;47261;52.892;5.738;2023-07-31T14:32:42;20.90;99.90
61392;DHT22;47261;52.892;5.738;2023-07-31T14:35:08;20.90;99.90
61392;DHT22;47261;52.892;5.738;2023-07-31T14:37:40;20.80;99.90
61392;DHT22;47261;52.892;5.738;2023-07-31T14:40:08;20.80;99.90
61392;DHT22;47261;52.892;5.738;2023-07-31T14:42:35;20.70;99.90
61392;DHT22;47261;52.892;5.738;2023-07-31T14:45:01;20.60;99.90
61392;DHT22;47261;52.892;5.738;2023-07-31T14:47:27;20.50;99.90
61392;DHT22;47261;52.892;5.738;2023-07-31T14:49:52;20.50;99.90
61392;DHT22;47261;52.892;5.738;2023-07-31T14:52:18;20.40;99.90
61392;DHT22;47261;52.892;5.738;2023-07-31T14:54:44;20.40;99.90
61392;DHT22;47261;52.892;5.738;2023-07-31T14:57:10;20.40;99.90
61392;DHT22;47261;52.892;5.738;2023-07-31T14:59:36;20.40;99.90
61392;DHT22;47261;52.892;5.738;2023-07-31T15:02:02;20.40;99.90
61392;DHT22;47261;52.892;5.738;2023-07-31T15:04:28;20.40;99.90
61392;DHT22;47261;52.892;5.738;2023-07-31T15:06:53;20.40;99.90
61392;DHT22;47261;52.892;5.738;2023-07-31T15:09:19;20.40;99.90
61392;DHT22;47261;52.892;5.738;2023-07-31T15:11:45;20.40;99.90
61392;DHT22;47261;52.892;5.738;2023-07-31T15:14:10;20.50;99.90
61392;DHT22;47261;52.892;5.738;2023-07-31T15:16:36;20.70;99.90
61392;DHT22;47261;52.892;5.738;2023-07-31T15:19:02;20.70;99.90
61392;DHT22;47261;52.892;5.738;2023-07-31T15:21:27;20.80;99.90
61392;DHT22;47261;52.892;5.738;2023-07-31T15:23:53;20.90;99.90
61392;DHT22;47261;52.892;5.738;2023-07-31T15:26:18;20.90;99.90
61392;DHT22;47261;52.892;5.738;2023-07-31T15:28:48;20.90;99.90
61392;DHT22;47261;52.892;5.738;2023-07-31T15:31:14;20.90;99.90
61392;DHT22;47261;52.892;5.738;2023-07-31T15:33:40;20.80;99.90
61392;DHT22;47261;52.892;5.738;2023-07-31T15:36:05;20.70;99.90
61392;DHT22;47261;52.892;5.738;2023-07-31T15:38:32;20.70;99.90
61392;DHT22;47261;52.892;5.738;2023-07-31T15:40:57;20.60;99.90
61392;DHT22;47261;52.892;5.738;2023-07-31T15:43:23;20.60;99.90
61392;DHT22;47261;52.892;5.738;2023-07-31T15:45:49;20.60;99.90
61392;DHT22;47261;52.892;5.738;2023-07-31T15:48:14;20.50;99.90
61392;DHT22;47261;52.892;5.738;2023-07-31T15:50:40;20.50;99.90
61392;DHT22;47261;52.892;5.738;2023-07-31T15:53:06;20.50;99.90
61392;DHT22;47261;52.892;5.738;2023-07-31T15:55:32;20.50;99.90
61392;DHT22;47261;52.892;5.738;2023-07-31T15:57:58;20.50;99.90
61392;DHT22;47261;52.892;5.738;2023-07-31T16:00:23;20.40;99.90